sensor_id;sensor_type;location;lat;lon;timestamp;pressure;altitude;pressure_sealevel;temperature;humidity
59443;BME280;45247;47.466;19.004;2023-04-15T00:01:57;98880.63;;;4.16;100.00
59443;BME280;45247;47.466;19.004;2023-04-15T00:04:26;98877.19;;;4.16;100.00
59443;BME280;45247;47.466;19.004;2023-04-15T00:06:54;98878.06;;;4.15;100.00
59443;BME280;45247;47.466;19.004;2023-04-15T00:09:22;98883.06;;;4.19;100.00
59443;BME280;45247;47.466;19.004;2023-04-15T00:11:50;98869.16;;;4.19;100.00
59443;BME280;45247;47.466;19.004;2023-04-15T00:14:19;98875.19;;;4.21;100.00
59443;BME280;45247;47.466;19.004;2023-04-15T00:16:49;98879.47;;;4.22;100.00
59443;BME280;45247;47.466;19.004;2023-04-15T00:19:22;98868.34;;;4.18;100.00
59443;BME280;45247;47.466;19.004;2023-04-15T00:21:50;98878.72;;;4.20;100.00
59443;BME280;45247;47.466;19.004;2023-04-15T00:24:18;98873.31;;;4.23;100.00
59443;BME280;45247;47.466;19.004;2023-04-15T00:26:46;98877.34;;;4.30;100.00
59443;BME280;45247;47.466;19.004;2023-04-15T00:29:14;98864.19;;;4.32;100.00
59443;BME280;45247;47.466;19.004;2023-04-15T00:31:42;98873.50;;;4.37;100.00
59443;BME280;45247;47.466;19.004;2023-04-15T00:34:12;98872.47;;;4.40;100.00
59443;BME280;45247;47.466;19.004;2023-04-15T00:36:40;98864.59;;;4.41;100.00
59443;BME280;45247;47.466;19.004;2023-04-15T00:39:09;98856.81;;;4.40;100.00
59443;BME280;45247;47.466;19.004;2023-04-15T00:41:37;98862.63;;;4.45;100.00
59443;BME280;45247;47.466;19.004;2023-04-15T00:44:06;98865.94;;;4.48;100.00
59443;BME280;45247;47.466;19.004;2023-04-15T00:46:35;98873.72;;;4.50;100.00
59443;BME280;45247;47.466;19.004;2023-04-15T00:49:04;98870.88;;;4.55;100.00
59443;BME280;45247;47.466;19.004;2023-04-15T00:51:34;98868.06;;;4.58;100.00
59443;BME280;45247;47.466;19.004;2023-04-15T00:54:03;98864.31;;;4.63;100.00
59443;BME280;45247;47.466;19.004;2023-04-15T00:56:34;98859.94;;;4.64;100.00
59443;BME280;45247;47.466;19.004;2023-04-15T00:59:04;98860.94;;;4.61;100.00
59443;BME280;45247;47.466;19.004;2023-04-15T01:01:33;98857.38;;;4.62;100.00
59443;BME280;45247;47.466;19.004;2023-04-15T01:04:02;98851.31;;;4.62;100.00
59443;BME280;45247;47.466;19.004;2023-04-15T01:06:31;98852.34;;;4.59;100.00
59443;BME280;45247;47.466;19.004;2023-04-15T01:09:00;98860.78;;;4.64;100.00
59443;BME280;45247;47.466;19.004;2023-04-15T01:11:29;98854.03;;;4.60;100.00
59443;BME280;45247;47.466;19.004;2023-04-15T01:14:00;98859.09;;;4.63;100.00
59443;BME280;45247;47.466;19.004;2023-04-15T01:16:28;98845.25;;;4.61;100.00
59443;BME280;45247;47.466;19.004;2023-04-15T01:18:56;98850.31;;;4.64;100.00
59443;BME280;45247;47.466;19.004;2023-04-15T01:21:25;98846.88;;;4.64;100.00
59443;BME280;45247;47.466;19.004;2023-04-15T01:23:54;98847.81;;;4.63;100.00
59443;BME280;45247;47.466;19.004;2023-04-15T01:26:25;98854.38;;;4.70;100.00
59443;BME280;45247;47.466;19.004;2023-04-15T01:28:53;98848.41;;;4.68;100.00
59443;BME280;45247;47.466;19.004;2023-04-15T01:31:22;98849.84;;;4.73;100.00
59443;BME280;45247;47.466;19.004;2023-04-15T01:33:50;98861.00;;;4.77;100.00
59443;BME280;45247;47.466;19.004;2023-04-15T01:36:18;98852.06;;;4.81;100.00
59443;BME280;45247;47.466;19.004;2023-04-15T01:38:46;98853.91;;;4.79;100.00
59443;BME280;45247;47.466;19.004;2023-04-15T01:41:15;98855.44;;;4.83;100.00
59443;BME280;45247;47.466;19.004;2023-04-15T01:43:44;98858.97;;;4.82;100.00
59443;BME280;45247;47.466;19.004;2023-04-15T01:46:16;98860.59;;;4.85;100.00
59443;BME280;45247;47.466;19.004;2023-04-15T01:48:44;98858.81;;;4.85;100.00
59443;BME280;45247;47.466;19.004;2023-04-15T01:51:12;98857.56;;;4.92;100.00
59443;BME280;45247;47.466;19.004;2023-04-15T01:53:40;98860.25;;;4.91;100.00
59443;BME280;45247;47.466;19.004;2023-04-15T01:56:09;98859.31;;;4.92;100.00
59443;BME280;45247;47.466;19.004;2023-04-15T01:58:37;98860.16;;;4.92;100.00
59443;BME280;45247;47.466;19.004;2023-04-15T02:01:07;98860.84;;;4.96;100.00
59443;BME280;45247;47.466;19.004;2023-04-15T02:03:36;98864.75;;;5.05;100.00
59443;BME280;45247;47.466;19.004;2023-04-15T02:06:05;98861.38;;;5.02;100.00
59443;BME280;45247;47.466;19.004;2023-04-15T02:08:33;98860.34;;;5.05;100.00
59443;BME280;45247;47.466;19.004;2023-04-15T02:11:01;98858.88;;;5.17;100.00
59443;BME280;45247;47.466;19.004;2023-04-15T02:13:29;98867.91;;;5.11;100.00
59443;BME280;45247;47.466;19.004;2023-04-15T02:15:58;98870.25;;;5.16;100.00
59443;BME280;45247;47.466;19.004;2023-04-15T02:18:27;98866.88;;;5.14;100.00
59443;BME280;45247;47.466;19.004;2023-04-15T02:20:55;98873.88;;;5.13;100.00
59443;BME280;45247;47.466;19.004;2023-04-15T02:23:24;98863.34;;;5.15;100.00
59443;BME280;45247;47.466;19.004;2023-04-15T02:25:52;98855.31;;;5.18;100.00
59443;BME280;45247;47.466;19.004;2023-04-15T02:28:20;98870.25;;;5.16;100.00
59443;BME280;45247;47.466;19.004;2023-04-15T02:30:48;98875.66;;;5.13;100.00
59443;BME280;45247;47.466;19.004;2023-04-15T02:33:19;98870.41;;;5.13;100.00
59443;BME280;45247;47.466;19.004;2023-04-15T02:35:49;98854.47;;;5.01;100.00
59443;BME280;45247;47.466;19.004;2023-04-15T02:38:18;98881.47;;;5.18;100.00
59443;BME280;45247;47.466;19.004;2023-04-15T02:40:46;98880.31;;;5.23;100.00
59443;BME280;45247;47.466;19.004;2023-04-15T02:43:16;98874.25;;;5.23;100.00
59443;BME280;45247;47.466;19.004;2023-04-15T02:45:45;98863.94;;;5.20;100.00
59443;BME280;45247;47.466;19.004;2023-04-15T02:48:14;98874.31;;;5.21;100.00
59443;BME280;45247;47.466;19.004;2023-04-15T02:50:44;98866.31;;;5.24;100.00
59443;BME280;45247;47.466;19.004;2023-04-15T02:53:15;98874.84;;;5.28;100.00
59443;BME280;45247;47.466;19.004;2023-04-15T02:55:43;98871.38;;;5.27;100.00
59443;BME280;45247;47.466;19.004;2023-04-15T02:58:11;98856.69;;;5.25;100.00
59443;BME280;45247;47.466;19.004;2023-04-15T03:00:40;98861.75;;;5.28;100.00
59443;BME280;45247;47.466;19.004;2023-04-15T03:03:08;98860.22;;;5.24;100.00
59443;BME280;45247;47.466;19.004;2023-04-15T03:05:36;98877.47;;;5.28;100.00
59443;BME280;45247;47.466;19.004;2023-04-15T03:08:05;98867.00;;;5.28;100.00
59443;BME280;45247;47.466;19.004;2023-04-15T03:10:35;98872.06;;;5.31;100.00
59443;BME280;45247;47.466;19.004;2023-04-15T03:13:03;98865.66;;;5.37;100.00
59443;BME280;45247;47.466;19.004;2023-04-15T03:15:32;98868.50;;;5.32;100.00
59443;BME280;45247;47.466;19.004;2023-04-15T03:18:00;98869.44;;;5.31;100.00
59443;BME280;45247;47.466;19.004;2023-04-15T03:20:28;98866.66;;;5.34;100.00
59443;BME280;45247;47.466;19.004;2023-04-15T03:22:56;98859.81;;;5.32;100.00
59443;BME280;45247;47.466;19.004;2023-04-15T03:25:24;98865.13;;;5.30;100.00
59443;BME280;45247;47.466;19.004;2023-04-15T03:27:54;98859.72;;;5.33;100.00
59443;BME280;45247;47.466;19.004;2023-04-15T03:30:22;98860.72;;;5.31;100.00
59443;BME280;45247;47.466;19.004;2023-04-15T03:32:50;98869.50;;;5.30;100.00
59443;BME280;45247;47.466;19.004;2023-04-15T03:35:19;98864.22;;;5.31;100.00
59443;BME280;45247;47.466;19.004;2023-04-15T03:37:47;98861.59;;;5.31;100.00
59443;BME280;45247;47.466;19.004;2023-04-15T03:40:15;98862.44;;;5.32;100.00
59443;BME280;45247;47.466;19.004;2023-04-15T03:42:43;98865.91;;;5.32;100.00
59443;BME280;45247;47.466;19.004;2023-04-15T03:45:12;98867.56;;;5.33;100.00
59443;BME280;45247;47.466;19.004;2023-04-15T03:47:40;98862.34;;;5.33;100.00
59443;BME280;45247;47.466;19.004;2023-04-15T03:50:09;98865.97;;;5.31;100.00
59443;BME280;45247;47.466;19.004;2023-04-15T03:52:37;98863.44;;;5.29;100.00
59443;BME280;45247;47.466;19.004;2023-04-15T03:55:06;98859.88;;;5.30;100.00
59443;BME280;45247;47.466;19.004;2023-04-15T03:57:34;98854.06;;;5.25;100.00
59443;BME280;45247;47.466;19.004;2023-04-15T04:00:06;98857.53;;;5.25;100.00
59443;BME280;45247;47.466;19.004;2023-04-15T04:02:37;98854.06;;;5.25;100.00
59443;BME280;45247;47.466;19.004;2023-04-15T04:05:06;98856.78;;;5.23;100.00
59443;BME280;45247;47.466;19.004;2023-04-15T04:07:34;98868.09;;;5.24;100.00
59443;BME280;45247;47.466;19.004;2023-04-15T04:10:03;98865.38;;;5.25;100.00
59443;BME280;45247;47.466;19.004;2023-04-15T04:12:31;98858.06;;;5.32;100.00
59443;BME280;45247;47.466;19.004;2023-04-15T04:15:00;98864.13;;;5.33;100.00
59443;BME280;45247;47.466;19.004;2023-04-15T04:17:28;98854.66;;;5.30;100.00
59443;BME280;45247;47.466;19.004;2023-04-15T04:19:58;98859.72;;;5.33;100.00
59443;BME280;45247;47.466;19.004;2023-04-15T04:22:26;98863.63;;;5.42;100.00
59443;BME280;45247;47.466;19.004;2023-04-15T04:24:54;98861.16;;;5.39;100.00
59443;BME280;45247;47.466;19.004;2023-04-15T04:27:25;98865.22;;;5.44;100.00
59443;BME280;45247;47.466;19.004;2023-04-15T04:29:53;98859.22;;;5.42;100.00
59443;BME280;45247;47.466;19.004;2023-04-15T04:32:21;98863.47;;;5.45;100.00
59443;BME280;45247;47.466;19.004;2023-04-15T04:34:50;98870.13;;;5.50;100.00
59443;BME280;45247;47.466;19.004;2023-04-15T04:37:19;98857.56;;;5.57;100.00
59443;BME280;45247;47.466;19.004;2023-04-15T04:39:49;98863.84;;;5.69;100.00
59443;BME280;45247;47.466;19.004;2023-04-15T04:42:17;98858.53;;;6.46;100.00
59443;BME280;45247;47.466;19.004;2023-04-15T04:44:45;98856.91;;;6.88;100.00
59443;BME280;45247;47.466;19.004;2023-04-15T04:47:13;98859.72;;;6.71;100.00
59443;BME280;45247;47.466;19.004;2023-04-15T04:49:41;98869.81;;;6.63;100.00
59443;BME280;45247;47.466;19.004;2023-04-15T04:52:09;98868.50;;;6.56;100.00
59443;BME280;45247;47.466;19.004;2023-04-15T04:54:39;98864.94;;;6.57;100.00
59443;BME280;45247;47.466;19.004;2023-04-15T04:57:07;98866.78;;;6.55;100.00
59443;BME280;45247;47.466;19.004;2023-04-15T04:59:38;98866.53;;;6.59;100.00
59443;BME280;45247;47.466;19.004;2023-04-15T05:02:06;98864.09;;;6.56;100.00
59443;BME280;45247;47.466;19.004;2023-04-15T05:04:35;98867.75;;;6.68;100.00
59443;BME280;45247;47.466;19.004;2023-04-15T05:07:03;98864.41;;;6.80;100.00
59443;BME280;45247;47.466;19.004;2023-04-15T05:09:32;98859.75;;;6.85;100.00
59443;BME280;45247;47.466;19.004;2023-04-15T05:12:03;98863.75;;;6.91;100.00
59443;BME280;45247;47.466;19.004;2023-04-15T05:14:31;98865.72;;;7.01;100.00
59443;BME280;45247;47.466;19.004;2023-04-15T05:16:59;98867.78;;;6.96;100.00
59443;BME280;45247;47.466;19.004;2023-04-15T05:19:27;98869.09;;;7.03;100.00
59443;BME280;45247;47.466;19.004;2023-04-15T05:21:57;98872.09;;;7.12;100.00
59443;BME280;45247;47.466;19.004;2023-04-15T05:24:25;98868.78;;;7.22;100.00
59443;BME280;45247;47.466;19.004;2023-04-15T05:26:53;98873.22;;;7.22;100.00
59443;BME280;45247;47.466;19.004;2023-04-15T05:29:23;98865.88;;;7.27;100.00
59443;BME280;45247;47.466;19.004;2023-04-15T05:31:51;98868.63;;;7.25;100.00
59443;BME280;45247;47.466;19.004;2023-04-15T05:34:20;98866.66;;;7.29;100.00
59443;BME280;45247;47.466;19.004;2023-04-15T05:36:48;98879.28;;;7.22;100.00
59443;BME280;45247;47.466;19.004;2023-04-15T05:39:16;98881.25;;;7.33;100.00
59443;BME280;45247;47.466;19.004;2023-04-15T05:41:44;98874.50;;;7.43;100.00
59443;BME280;45247;47.466;19.004;2023-04-15T05:44:12;98883.47;;;7.53;100.00
59443;BME280;45247;47.466;19.004;2023-04-15T05:46:42;98890.28;;;7.70;100.00
59443;BME280;45247;47.466;19.004;2023-04-15T05:49:10;98884.53;;;7.78;100.00
59443;BME280;45247;47.466;19.004;2023-04-15T05:51:38;98886.56;;;7.87;100.00
59443;BME280;45247;47.466;19.004;2023-04-15T05:54:06;98886.69;;;7.86;100.00
59443;BME280;45247;47.466;19.004;2023-04-15T05:56:34;98884.69;;;7.89;100.00
59443;BME280;45247;47.466;19.004;2023-04-15T05:59:03;98889.59;;;8.08;100.00
59443;BME280;45247;47.466;19.004;2023-04-15T06:01:32;98892.59;;;8.29;100.00
59443;BME280;45247;47.466;19.004;2023-04-15T06:04:02;98893.31;;;8.45;100.00
59443;BME280;45247;47.466;19.004;2023-04-15T06:06:30;98893.50;;;8.42;100.00
59443;BME280;45247;47.466;19.004;2023-04-15T06:08:58;98901.56;;;8.26;100.00
59443;BME280;45247;47.466;19.004;2023-04-15T06:11:26;98901.81;;;8.22;100.00
59443;BME280;45247;47.466;19.004;2023-04-15T06:13:55;98901.56;;;8.26;100.00
59443;BME280;45247;47.466;19.004;2023-04-15T06:16:23;98906.50;;;8.71;100.00
59443;BME280;45247;47.466;19.004;2023-04-15T06:18:51;98895.88;;;9.11;100.00
59443;BME280;45247;47.466;19.004;2023-04-15T06:21:21;98901.41;;;10.42;100.00
59443;BME280;45247;47.466;19.004;2023-04-15T06:23:49;98895.66;;;11.06;100.00
59443;BME280;45247;47.466;19.004;2023-04-15T06:26:17;98908.63;;;11.87;100.00
59443;BME280;45247;47.466;19.004;2023-04-15T06:28:45;98904.97;;;12.43;100.00
59443;BME280;45247;47.466;19.004;2023-04-15T06:31:14;98907.16;;;12.79;100.00
59443;BME280;45247;47.466;19.004;2023-04-15T06:33:42;98908.00;;;12.80;100.00
59443;BME280;45247;47.466;19.004;2023-04-15T06:36:10;98900.94;;;13.32;100.00
59443;BME280;45247;47.466;19.004;2023-04-15T06:38:42;98912.97;;;13.36;100.00
59443;BME280;45247;47.466;19.004;2023-04-15T06:41:10;98915.72;;;13.14;100.00
59443;BME280;45247;47.466;19.004;2023-04-15T06:43:38;98919.81;;;12.97;100.00
59443;BME280;45247;47.466;19.004;2023-04-15T06:46:06;98910.34;;;12.73;100.00
59443;BME280;45247;47.466;19.004;2023-04-15T06:48:35;98917.88;;;12.57;100.00
59443;BME280;45247;47.466;19.004;2023-04-15T06:51:03;98913.44;;;12.99;100.00
59443;BME280;45247;47.466;19.004;2023-04-15T06:53:31;98906.91;;;13.24;100.00
59443;BME280;45247;47.466;19.004;2023-04-15T06:56:02;98899.84;;;13.14;100.00
59443;BME280;45247;47.466;19.004;2023-04-15T06:58:30;98912.66;;;12.67;100.00
59443;BME280;45247;47.466;19.004;2023-04-15T07:00:58;98926.38;;;12.40;100.00
59443;BME280;45247;47.466;19.004;2023-04-15T07:03:27;98916.28;;;12.01;100.00
59443;BME280;45247;47.466;19.004;2023-04-15T07:05:58;98916.03;;;12.05;100.00
59443;BME280;45247;47.466;19.004;2023-04-15T07:08:27;98918.59;;;12.27;100.00
59443;BME280;45247;47.466;19.004;2023-04-15T07:10:55;98919.50;;;12.37;100.00
59443;BME280;45247;47.466;19.004;2023-04-15T07:13:25;98925.69;;;12.59;100.00
59443;BME280;45247;47.466;19.004;2023-04-15T07:15:53;98924.16;;;12.56;100.00
59443;BME280;45247;47.466;19.004;2023-04-15T07:18:21;98929.38;;;12.67;100.00
59443;BME280;45247;47.466;19.004;2023-04-15T07:20:49;98926.53;;;12.59;100.00
59443;BME280;45247;47.466;19.004;2023-04-15T07:23:19;98931.72;;;12.49;100.00
59443;BME280;45247;47.466;19.004;2023-04-15T07:25:47;98935.38;;;12.37;100.00
59443;BME280;45247;47.466;19.004;2023-04-15T07:28:16;98936.75;;;12.32;100.00
59443;BME280;45247;47.466;19.004;2023-04-15T07:30:45;98937.34;;;12.24;100.00
59443;BME280;45247;47.466;19.004;2023-04-15T07:33:14;98930.41;;;12.23;100.00
59443;BME280;45247;47.466;19.004;2023-04-15T07:35:42;98921.59;;;12.54;100.00
59443;BME280;45247;47.466;19.004;2023-04-15T07:38:10;98933.75;;;12.57;100.00
59443;BME280;45247;47.466;19.004;2023-04-15T07:40:39;98919.44;;;12.81;100.00
59443;BME280;45247;47.466;19.004;2023-04-15T07:43:08;98930.78;;;12.71;100.00
59443;BME280;45247;47.466;19.004;2023-04-15T07:45:36;98934.66;;;12.67;100.00
59443;BME280;45247;47.466;19.004;2023-04-15T07:48:06;98923.88;;;12.80;100.00
59443;BME280;45247;47.466;19.004;2023-04-15T07:50:35;98933.31;;;12.73;100.00
59443;BME280;45247;47.466;19.004;2023-04-15T07:53:05;98932.53;;;12.61;100.00
59443;BME280;45247;47.466;19.004;2023-04-15T07:55:35;98923.16;;;12.57;100.00
59443;BME280;45247;47.466;19.004;2023-04-15T07:58:05;98923.44;;;12.75;100.00
59443;BME280;45247;47.466;19.004;2023-04-15T08:00:34;98923.19;;;12.78;100.00
59443;BME280;45247;47.466;19.004;2023-04-15T08:03:03;98933.25;;;12.84;100.00
59443;BME280;45247;47.466;19.004;2023-04-15T08:05:34;98926.81;;;12.98;100.00
59443;BME280;45247;47.466;19.004;2023-04-15T08:08:02;98929.13;;;13.33;100.00
59443;BME280;45247;47.466;19.004;2023-04-15T08:10:31;98930.59;;;13.57;100.00
59443;BME280;45247;47.466;19.004;2023-04-15T08:12:59;98931.31;;;13.59;97.38
59443;BME280;45247;47.466;19.004;2023-04-15T08:15:27;98930.50;;;13.68;100.00
59443;BME280;45247;47.466;19.004;2023-04-15T08:17:55;98930.97;;;13.42;100.00
59443;BME280;45247;47.466;19.004;2023-04-15T08:20:24;98939.38;;;13.06;100.00
59443;BME280;45247;47.466;19.004;2023-04-15T08:22:54;98944.47;;;12.97;100.00
59443;BME280;45247;47.466;19.004;2023-04-15T08:25:23;98950.22;;;12.61;100.00
59443;BME280;45247;47.466;19.004;2023-04-15T08:27:57;98952.84;;;12.40;100.00
59443;BME280;45247;47.466;19.004;2023-04-15T08:30:25;98955.66;;;12.16;100.00
59443;BME280;45247;47.466;19.004;2023-04-15T08:32:54;98954.53;;;11.86;100.00
59443;BME280;45247;47.466;19.004;2023-04-15T08:35:23;98957.38;;;11.72;100.00
59443;BME280;45247;47.466;19.004;2023-04-15T08:37:51;98957.38;;;11.72;100.00
59443;BME280;45247;47.466;19.004;2023-04-15T08:40:24;98953.06;;;11.93;100.00
59443;BME280;45247;47.466;19.004;2023-04-15T08:43:00;98960.16;;;12.36;100.00
59443;BME280;45247;47.466;19.004;2023-04-15T08:45:36;98959.88;;;12.83;100.00
59443;BME280;45247;47.466;19.004;2023-04-15T08:48:06;98957.94;;;13.26;100.00
59443;BME280;45247;47.466;19.004;2023-04-15T08:50:37;98963.59;;;13.43;100.00
59443;BME280;45247;47.466;19.004;2023-04-15T08:53:05;98966.91;;;13.35;100.00
59443;BME280;45247;47.466;19.004;2023-04-15T08:55:35;98955.88;;;13.30;100.00
59443;BME280;45247;47.466;19.004;2023-04-15T08:58:07;98955.66;;;13.22;97.81
59443;BME280;45247;47.466;19.004;2023-04-15T09:00:35;98959.47;;;13.08;100.00
59443;BME280;45247;47.466;19.004;2023-04-15T09:03:04;98967.88;;;13.13;100.00
59443;BME280;45247;47.466;19.004;2023-04-15T09:05:33;98973.63;;;13.18;100.00
59443;BME280;45247;47.466;19.004;2023-04-15T09:08:03;98963.34;;;13.04;100.00
59443;BME280;45247;47.466;19.004;2023-04-15T09:10:36;98968.88;;;13.33;97.71
59443;BME280;45247;47.466;19.004;2023-04-15T09:13:04;98965.47;;;13.52;100.00
59443;BME280;45247;47.466;19.004;2023-04-15T09:15:37;98956.84;;;13.60;99.44
59443;BME280;45247;47.466;19.004;2023-04-15T09:18:05;98968.16;;;13.31;100.00
59443;BME280;45247;47.466;19.004;2023-04-15T09:20:38;98980.13;;;13.14;100.00
59443;BME280;45247;47.466;19.004;2023-04-15T09:23:14;98972.97;;;12.84;100.00
59443;BME280;45247;47.466;19.004;2023-04-15T09:25:47;98972.41;;;12.48;100.00
59443;BME280;45247;47.466;19.004;2023-04-15T09:28:23;98969.84;;;12.15;100.00
59443;BME280;45247;47.466;19.004;2023-04-15T09:30:55;98975.06;;;12.37;100.00
59443;BME280;45247;47.466;19.004;2023-04-15T09:33:24;98966.91;;;12.40;100.00
59443;BME280;45247;47.466;19.004;2023-04-15T09:35:57;98959.13;;;12.27;100.00
59443;BME280;45247;47.466;19.004;2023-04-15T09:38:25;98970.22;;;12.53;100.00
59443;BME280;45247;47.466;19.004;2023-04-15T09:40:56;98957.03;;;12.42;100.00
59443;BME280;45247;47.466;19.004;2023-04-15T09:43:36;98969.22;;;12.66;100.00
59443;BME280;45247;47.466;19.004;2023-04-15T09:46:05;98971.47;;;12.70;100.00
59443;BME280;45247;47.466;19.004;2023-04-15T09:48:33;98972.09;;;12.63;100.00
59443;BME280;45247;47.466;19.004;2023-04-15T09:51:01;98981.72;;;12.32;100.00
59443;BME280;45247;47.466;19.004;2023-04-15T09:53:32;98980.78;;;12.21;100.00
59443;BME280;45247;47.466;19.004;2023-04-15T09:56:02;98983.16;;;12.36;100.00
59443;BME280;45247;47.466;19.004;2023-04-15T09:58:34;98977.25;;;12.32;100.00
59443;BME280;45247;47.466;19.004;2023-04-15T10:01:05;98984.03;;;12.14;100.00
59443;BME280;45247;47.466;19.004;2023-04-15T10:03:35;98969.66;;;11.95;100.00
59443;BME280;45247;47.466;19.004;2023-04-15T10:06:03;98985.75;;;11.92;100.00
59443;BME280;45247;47.466;19.004;2023-04-15T10:08:33;98981.41;;;11.80;100.00
59443;BME280;45247;47.466;19.004;2023-04-15T10:11:03;98993.94;;;12.00;100.00
59443;BME280;45247;47.466;19.004;2023-04-15T10:13:32;98988.88;;;11.97;100.00
59443;BME280;45247;47.466;19.004;2023-04-15T10:16:05;98990.19;;;11.81;100.00
59443;BME280;45247;47.466;19.004;2023-04-15T10:18:35;98994.72;;;11.56;100.00
59443;BME280;45247;47.466;19.004;2023-04-15T10:21:05;98992.22;;;11.54;100.00
59443;BME280;45247;47.466;19.004;2023-04-15T10:23:35;98993.31;;;11.74;100.00
59443;BME280;45247;47.466;19.004;2023-04-15T10:26:06;98996.56;;;12.00;100.00
59443;BME280;45247;47.466;19.004;2023-04-15T10:28:35;98993.75;;;12.24;100.00
59443;BME280;45247;47.466;19.004;2023-04-15T10:31:04;98995.31;;;12.27;100.00
59443;BME280;45247;47.466;19.004;2023-04-15T10:33:33;98995.97;;;12.51;100.00
59443;BME280;45247;47.466;19.004;2023-04-15T10:36:02;99002.63;;;12.67;100.00
59443;BME280;45247;47.466;19.004;2023-04-15T10:38:34;98995.91;;;12.63;100.00
59443;BME280;45247;47.466;19.004;2023-04-15T10:41:16;99000.97;;;12.34;100.00
59443;BME280;45247;47.466;19.004;2023-04-15T10:43:50;99002.06;;;11.64;100.00
59443;BME280;45247;47.466;19.004;2023-04-15T10:46:23;99006.50;;;11.41;100.00
59443;BME280;45247;47.466;19.004;2023-04-15T10:48:52;99005.19;;;11.46;100.00
59443;BME280;45247;47.466;19.004;2023-04-15T10:51:29;99003.50;;;11.45;100.00
59443;BME280;45247;47.466;19.004;2023-04-15T10:53:58;99006.72;;;11.38;100.00
59443;BME280;45247;47.466;19.004;2023-04-15T10:56:29;99013.13;;;11.58;100.00
59443;BME280;45247;47.466;19.004;2023-04-15T10:58:59;99009.66;;;11.57;100.00
59443;BME280;45247;47.466;19.004;2023-04-15T11:01:52;99019.84;;;11.50;100.00
59443;BME280;45247;47.466;19.004;2023-04-15T11:04:52;99020.81;;;11.72;100.00
59443;BME280;45247;47.466;19.004;2023-04-15T11:07:34;99017.13;;;12.08;100.00
59443;BME280;45247;47.466;19.004;2023-04-15T11:10:03;99022.38;;;12.31;100.00
59443;BME280;45247;47.466;19.004;2023-04-15T11:12:56;99013.97;;;12.03;100.00
59443;BME280;45247;47.466;19.004;2023-04-15T11:15:27;99017.22;;;12.07;100.00
59443;BME280;45247;47.466;19.004;2023-04-15T11:17:56;99024.28;;;12.28;100.00
59443;BME280;45247;47.466;19.004;2023-04-15T11:20:28;99016.09;;;12.32;100.00
59443;BME280;45247;47.466;19.004;2023-04-15T11:22:57;99018.44;;;12.25;100.00
59443;BME280;45247;47.466;19.004;2023-04-15T11:25:43;99013.88;;;12.05;100.00
59443;BME280;45247;47.466;19.004;2023-04-15T11:28:14;98996.06;;;12.07;100.00
59443;BME280;45247;47.466;19.004;2023-04-15T11:30:43;99014.91;;;12.24;100.00
59443;BME280;45247;47.466;19.004;2023-04-15T11:33:11;99014.22;;;12.54;100.00
59443;BME280;45247;47.466;19.004;2023-04-15T11:35:40;99016.91;;;12.87;100.00
59443;BME280;45247;47.466;19.004;2023-04-15T11:38:09;99018.47;;;12.89;100.00
59443;BME280;45247;47.466;19.004;2023-04-15T11:40:39;99024.84;;;12.87;100.00
59443;BME280;45247;47.466;19.004;2023-04-15T11:43:10;99018.94;;;12.83;100.00
59443;BME280;45247;47.466;19.004;2023-04-15T11:45:49;99020.22;;;12.68;100.00
59443;BME280;45247;47.466;19.004;2023-04-15T11:48:20;99025.72;;;12.33;100.00
59443;BME280;45247;47.466;19.004;2023-04-15T11:50:54;99021.63;;;12.40;100.00
59443;BME280;45247;47.466;19.004;2023-04-15T11:53:23;99024.56;;;12.58;100.00
59443;BME280;45247;47.466;19.004;2023-04-15T11:55:52;99025.09;;;12.51;100.00
59443;BME280;45247;47.466;19.004;2023-04-15T11:58:24;99029.00;;;12.68;100.00
59443;BME280;45247;47.466;19.004;2023-04-15T12:00:57;99026.53;;;12.56;100.00
59443;BME280;45247;47.466;19.004;2023-04-15T12:03:27;99024.09;;;12.64;100.00
59443;BME280;45247;47.466;19.004;2023-04-15T12:06:03;99029.44;;;13.06;100.00
59443;BME280;45247;47.466;19.004;2023-04-15T12:09:02;99024.50;;;13.54;100.00
59443;BME280;45247;47.466;19.004;2023-04-15T12:11:33;99031.56;;;13.74;99.92
59443;BME280;45247;47.466;19.004;2023-04-15T12:14:04;99027.19;;;13.64;100.00
59443;BME280;45247;47.466;19.004;2023-04-15T12:16:35;99032.03;;;13.17;100.00
59443;BME280;45247;47.466;19.004;2023-04-15T12:19:15;99032.22;;;13.36;100.00
59443;BME280;45247;47.466;19.004;2023-04-15T12:21:45;99025.50;;;13.32;100.00
59443;BME280;45247;47.466;19.004;2023-04-15T12:24:14;99023.91;;;13.50;100.00
59443;BME280;45247;47.466;19.004;2023-04-15T12:26:44;99030.53;;;13.66;100.00
59443;BME280;45247;47.466;19.004;2023-04-15T12:29:14;99036.88;;;13.74;100.00
59443;BME280;45247;47.466;19.004;2023-04-15T12:31:50;99032.72;;;13.82;100.00
59443;BME280;45247;47.466;19.004;2023-04-15T12:34:25;99032.97;;;13.78;100.00
59443;BME280;45247;47.466;19.004;2023-04-15T12:36:55;99037.06;;;13.62;100.00
59443;BME280;45247;47.466;19.004;2023-04-15T12:39:25;99036.66;;;13.36;100.00
59443;BME280;45247;47.466;19.004;2023-04-15T12:41:56;99048.38;;;13.22;100.00
59443;BME280;45247;47.466;19.004;2023-04-15T12:44:25;99041.97;;;13.03;100.00
59443;BME280;45247;47.466;19.004;2023-04-15T12:46:55;99044.44;;;12.84;100.00
59443;BME280;45247;47.466;19.004;2023-04-15T12:49:24;99044.50;;;12.73;100.00
59443;BME280;45247;47.466;19.004;2023-04-15T12:51:54;99037.28;;;12.75;100.00
59443;BME280;45247;47.466;19.004;2023-04-15T12:54:23;99044.97;;;12.78;100.00
59443;BME280;45247;47.466;19.004;2023-04-15T12:56:52;99038.09;;;12.75;100.00
59443;BME280;45247;47.466;19.004;2023-04-15T12:59:21;99043.97;;;12.90;100.00